createdAt,value
2022-08-19T00:00:15.866Z,1012.49
2022-08-19T00:00:46.456Z,1012.49
2022-08-19T00:01:16.998Z,1012.50
2022-08-19T00:01:52.814Z,1012.50
2022-08-19T00:02:18.597Z,1012.52
2022-08-19T00:02:50.431Z,1012.54
2022-08-19T00:03:19.293Z,1012.53
2022-08-19T00:03:50.919Z,1012.55
2022-08-19T00:04:21.499Z,1012.56
2022-08-19T00:04:51.317Z,1012.56
2022-08-19T00:05:22.923Z,1012.58
2022-08-19T00:05:53.465Z,1012.58
2022-08-19T00:06:23.203Z,1012.59
2022-08-19T00:06:54.837Z,1012.59
2022-08-19T00:07:25.427Z,1012.59
2022-08-19T00:07:56.001Z,1012.61
2022-08-19T00:08:26.560Z,1012.61
2022-08-19T00:08:57.101Z,1012.64
2022-08-19T00:09:27.670Z,1012.64
2022-08-19T00:09:58.260Z,1012.67
2022-08-19T00:10:28.805Z,1012.67
2022-08-19T00:10:59.324Z,1012.67
2022-08-19T00:11:29.874Z,1012.67
2022-08-19T00:11:59.623Z,1012.64
2022-08-19T00:12:31.198Z,1012.64
2022-08-19T00:13:01.818Z,1012.58
2022-08-19T00:13:31.565Z,1012.58
2022-08-19T00:14:03.184Z,1012.57
2022-08-19T00:14:33.743Z,1012.56
2022-08-19T00:15:04.304Z,1012.54
2022-08-19T00:15:34.042Z,1012.57
2022-08-19T00:16:04.829Z,1012.57
2022-08-19T00:16:36.442Z,1012.57
2022-08-19T00:17:07.035Z,1012.62
2022-08-19T00:17:37.573Z,1012.61
2022-08-19T00:18:08.430Z,1012.59
2022-08-19T00:18:38.171Z,1012.63
2022-08-19T00:19:09.739Z,1012.62
2022-08-19T00:19:39.483Z,1012.64
2022-08-19T00:20:11.106Z,1012.64
2022-08-19T00:20:41.707Z,1012.63
2022-08-19T00:21:12.237Z,1012.64
2022-08-19T00:21:43.007Z,1012.62
2022-08-19T00:22:13.550Z,1012.62
2022-08-19T00:22:43.287Z,1012.61
2022-08-19T00:23:14.865Z,1012.64
2022-08-19T00:23:45.458Z,1012.64
2022-08-19T00:24:15.224Z,1012.63
2022-08-19T00:24:50.806Z,1012.62
2022-08-19T00:25:17.936Z,1012.63
2022-08-19T00:25:48.899Z,1012.62
2022-08-19T00:26:19.470Z,1012.62
2022-08-19T00:26:50.246Z,1012.61
2022-08-19T00:27:25.768Z,1012.63
2022-08-19T00:27:51.826Z,1012.65
2022-08-19T00:28:21.566Z,1012.68
2022-08-19T00:28:52.374Z,1012.66
2022-08-19T00:29:23.988Z,1012.68
2022-08-19T00:29:54.556Z,1012.69
2022-08-19T00:30:25.090Z,1012.70
2022-08-19T00:30:55.646Z,1012.69
2022-08-19T00:31:26.178Z,1012.72
2022-08-19T00:31:56.712Z,1012.71
2022-08-19T00:32:27.279Z,1012.71
2022-08-19T00:32:58.328Z,1012.71
2022-08-19T00:33:28.135Z,1012.71
2022-08-19T00:33:58.954Z,1012.70
2022-08-19T00:34:30.555Z,1012.70
2022-08-19T00:35:01.087Z,1012.68
2022-08-19T00:35:32.118Z,1012.66
2022-08-19T00:36:04.093Z,1012.67
2022-08-19T00:36:33.223Z,1012.65
2022-08-19T00:37:03.759Z,1012.66
2022-08-19T00:37:33.292Z,1012.67
2022-08-19T00:38:04.096Z,1012.65
2022-08-19T00:38:37.300Z,1012.66
2022-08-19T00:39:06.559Z,1012.67
2022-08-19T00:39:37.430Z,1012.65
2022-08-19T00:40:08.040Z,1012.66
2022-08-19T00:40:37.858Z,1012.67
2022-08-19T00:41:09.447Z,1012.67
2022-08-19T00:41:39.177Z,1012.67
2022-08-19T00:42:09.957Z,1012.67
2022-08-19T00:42:40.755Z,1012.65
2022-08-19T00:43:11.560Z,1012.65
2022-08-19T00:43:42.341Z,1012.64
2022-08-19T00:44:13.917Z,1012.61
2022-08-19T00:44:43.662Z,1012.61
2022-08-19T00:45:15.480Z,1012.61
2022-08-19T00:45:46.024Z,1012.62
2022-08-19T00:46:15.767Z,1012.61
2022-08-19T00:46:55.295Z,1012.61
2022-08-19T00:47:18.369Z,1012.62
2022-08-19T00:47:48.334Z,1012.61
2022-08-19T00:48:19.133Z,1012.60
2022-08-19T00:48:50.756Z,1012.57
2022-08-19T00:49:21.344Z,1012.57
2022-08-19T00:49:51.914Z,1012.57
2022-08-19T00:50:22.497Z,1012.54
2022-08-19T00:50:53.265Z,1012.53
2022-08-19T00:51:23.013Z,1012.52
2022-08-19T00:51:54.617Z,1012.51
2022-08-19T00:52:24.356Z,1012.51
2022-08-19T00:52:56.001Z,1012.50
2022-08-19T00:53:25.741Z,1012.48
2022-08-19T00:53:57.386Z,1012.49
2022-08-19T00:54:31.002Z,1012.48
2022-08-19T00:54:57.813Z,1012.47
2022-08-19T00:55:29.385Z,1012.46
2022-08-19T00:56:00.172Z,1012.45
2022-08-19T00:56:30.847Z,1012.45
2022-08-19T00:57:00.602Z,1012.45
2022-08-19T00:57:32.397Z,1012.45
2022-08-19T00:58:02.141Z,1012.45
2022-08-19T00:58:33.983Z,1012.46
2022-08-19T00:59:04.544Z,1012.45
2022-08-19T01:00:00.581Z,1012.46
2022-08-19T01:00:05.901Z,1012.47
2022-08-19T01:00:35.646Z,1012.48
2022-08-19T01:01:06.434Z,1012.47
2022-08-19T01:01:38.103Z,1012.49
2022-08-19T01:02:08.645Z,1012.49
2022-08-19T01:02:40.312Z,1012.49
2022-08-19T01:03:10.316Z,1012.49
2022-08-19T01:03:57.511Z,1012.50
2022-08-19T01:04:11.883Z,1012.50
2022-08-19T01:04:42.493Z,1012.50
2022-08-19T01:05:12.228Z,1012.50
2022-08-19T01:05:43.070Z,1012.49
2022-08-19T01:06:14.676Z,1012.50
2022-08-19T01:06:45.461Z,1012.50
2022-08-19T01:07:17.321Z,1012.50
2022-08-19T01:07:45.611Z,1012.51
2022-08-19T01:08:17.214Z,1012.50
2022-08-19T01:08:50.047Z,1012.49
2022-08-19T01:09:17.459Z,1012.50
2022-08-19T01:09:48.246Z,1012.50
2022-08-19T01:10:19.844Z,1012.49
2022-08-19T01:10:49.580Z,1012.48
2022-08-19T01:11:20.364Z,1012.50
2022-08-19T01:11:51.933Z,1012.49
2022-08-19T01:12:21.677Z,1012.49
2022-08-19T01:12:52.671Z,1012.51
2022-08-19T01:13:23.066Z,1012.51
2022-08-19T01:13:54.674Z,1012.52
2022-08-19T01:14:25.239Z,1012.52
2022-08-19T01:14:54.998Z,1012.53
2022-08-19T01:15:25.775Z,1012.53
2022-08-19T01:15:56.562Z,1012.51
2022-08-19T01:16:28.170Z,1012.50
2022-08-19T01:16:57.901Z,1012.49
2022-08-19T01:17:29.493Z,1012.49
2022-08-19T01:17:59.232Z,1012.48
2022-08-19T01:18:31.058Z,1012.48
2022-08-19T01:19:00.606Z,1012.48
2022-08-19T01:19:32.197Z,1012.47
2022-08-19T01:20:02.973Z,1012.47
2022-08-19T01:20:32.705Z,1012.46
2022-08-19T01:21:03.490Z,1012.46
2022-08-19T01:21:34.303Z,1012.45
2022-08-19T01:22:14.447Z,1012.46
2022-08-19T01:22:36.700Z,1012.46
2022-08-19T01:23:07.226Z,1012.46
2022-08-19T01:23:38.005Z,1012.47
2022-08-19T01:24:08.575Z,1012.49
2022-08-19T01:24:38.343Z,1012.49
2022-08-19T01:25:15.061Z,1012.49
2022-08-19T01:25:40.946Z,1012.49
2022-08-19T01:26:10.692Z,1012.50
2022-08-19T01:26:41.478Z,1012.51
2022-08-19T01:27:12.374Z,1012.50
2022-08-19T01:27:44.092Z,1012.49
2022-08-19T01:28:14.509Z,1012.49
2022-08-19T01:28:45.284Z,1012.51
2022-08-19T01:29:15.029Z,1012.51
2022-08-19T01:29:46.594Z,1012.53
2022-08-19T01:30:17.139Z,1012.50
2022-08-19T01:30:50.961Z,1012.52
2022-08-19T01:31:27.393Z,1012.52
2022-08-19T01:31:49.734Z,1012.51
2022-08-19T01:32:21.179Z,1012.52
2022-08-19T01:32:51.440Z,1012.52
2022-08-19T01:33:21.319Z,1012.52
2022-08-19T01:33:52.936Z,1012.52
2022-08-19T01:34:22.710Z,1012.52
2022-08-19T01:34:53.495Z,1012.52
2022-08-19T01:35:24.185Z,1012.52
2022-08-19T01:35:55.778Z,1012.52
2022-08-19T01:36:25.515Z,1012.51
2022-08-19T01:36:56.294Z,1012.51
2022-08-19T01:37:27.379Z,1012.50
2022-08-19T01:37:57.685Z,1012.50
2022-08-19T01:38:29.316Z,1012.51
2022-08-19T01:38:59.067Z,1012.51
2022-08-19T01:39:29.915Z,1012.51
2022-08-19T01:40:00.789Z,1012.51
2022-08-19T01:40:31.620Z,1012.51
2022-08-19T01:41:03.197Z,1012.52
2022-08-19T01:41:33.963Z,1012.53
2022-08-19T01:42:04.494Z,1012.53
2022-08-19T01:42:35.035Z,1012.54
2022-08-19T01:43:05.581Z,1012.55
2022-08-19T01:43:35.317Z,1012.57
2022-08-19T01:44:17.561Z,1012.58
2022-08-19T01:44:37.957Z,1012.59
2022-08-19T01:45:07.723Z,1012.59
2022-08-19T01:45:39.338Z,1012.59
2022-08-19T01:46:09.075Z,1012.58
2022-08-19T01:46:39.870Z,1012.59
2022-08-19T01:47:10.658Z,1012.58
2022-08-19T01:47:42.247Z,1012.59
2022-08-19T01:48:11.986Z,1012.59
2022-08-19T01:48:43.600Z,1012.59
2022-08-19T01:49:14.182Z,1012.60
2022-08-19T01:49:43.944Z,1012.60
2022-08-19T01:50:14.734Z,1012.60
2022-08-19T01:50:45.511Z,1012.60
2022-08-19T01:51:17.335Z,1012.60
2022-08-19T01:51:47.070Z,1012.59
2022-08-19T01:52:18.681Z,1012.58
2022-08-19T01:52:48.430Z,1012.57
2022-08-19T01:53:20.250Z,1012.56
2022-08-19T01:53:49.991Z,1012.56
2022-08-19T01:54:23.152Z,1012.55
2022-08-19T01:54:52.620Z,1012.54
2022-08-19T01:55:23.654Z,1012.54
2022-08-19T01:55:53.387Z,1012.53
2022-08-19T01:56:24.011Z,1012.54
2022-08-19T01:56:54.807Z,1012.53
2022-08-19T01:57:26.635Z,1012.54
2022-08-19T01:57:56.379Z,1012.55
2022-08-19T01:58:27.167Z,1012.57
2022-08-19T01:58:58.984Z,1012.59
2022-08-19T01:59:29.550Z,1012.62
2022-08-19T01:59:59.297Z,1012.65
2022-08-19T02:00:30.083Z,1012.69
2022-08-19T02:01:00.930Z,1012.72
2022-08-19T02:01:31.850Z,1012.75
2022-08-19T02:02:02.652Z,1012.77
2022-08-19T02:02:33.430Z,1012.79
2022-08-19T02:03:05.044Z,1012.80
2022-08-19T02:03:34.775Z,1012.82
2022-08-19T02:04:05.559Z,1012.82
2022-08-19T02:04:36.339Z,1012.83
2022-08-19T02:05:07.161Z,1012.83
2022-08-19T02:05:37.780Z,1012.83
2022-08-19T02:06:08.558Z,1012.83
2022-08-19T02:06:39.338Z,1012.83
2022-08-19T02:07:10.127Z,1012.83
2022-08-19T02:07:41.452Z,1012.83
2022-08-19T02:08:11.882Z,1012.83
2022-08-19T02:08:42.665Z,1012.83
2022-08-19T02:09:13.449Z,1012.84
2022-08-19T02:09:45.261Z,1012.85
2022-08-19T02:10:16.567Z,1012.85
2022-08-19T02:10:46.000Z,1012.86
2022-08-19T02:11:16.786Z,1012.86
2022-08-19T02:11:47.591Z,1012.86
2022-08-19T02:12:18.379Z,1012.85
2022-08-19T02:12:49.253Z,1012.83
2022-08-19T02:13:22.771Z,1012.81
2022-08-19T02:13:51.764Z,1012.79
2022-08-19T02:14:21.503Z,1012.76
2022-08-19T02:14:53.317Z,1012.74
2022-08-19T02:15:23.859Z,1012.71
2022-08-19T02:15:53.603Z,1012.70
2022-08-19T02:16:25.220Z,1012.69
2022-08-19T02:16:54.985Z,1012.68
2022-08-19T02:17:25.761Z,1012.67
2022-08-19T02:17:56.551Z,1012.67
2022-08-19T02:18:28.099Z,1012.66
2022-08-19T02:19:00.338Z,1012.65
2022-08-19T02:19:29.928Z,1012.64
2022-08-19T02:20:00.456Z,1012.64
2022-08-19T02:20:31.238Z,1012.63
2022-08-19T02:21:00.972Z,1012.63
2022-08-19T02:21:31.757Z,1012.63
2022-08-19T02:22:02.561Z,1012.64
2022-08-19T02:22:34.149Z,1012.65
2022-08-19T02:23:03.895Z,1012.66
2022-08-19T02:23:34.687Z,1012.66
2022-08-19T02:24:06.266Z,1012.65
2022-08-19T02:24:36.003Z,1012.65
2022-08-19T02:25:06.799Z,1012.65
2022-08-19T02:25:37.582Z,1012.64
2022-08-19T02:26:08.368Z,1012.64
2022-08-19T02:26:39.157Z,1012.64
2022-08-19T02:27:09.996Z,1012.64
2022-08-19T02:27:40.782Z,1012.64
2022-08-19T02:28:16.615Z,1012.64
2022-08-19T02:28:43.177Z,1012.64
2022-08-19T02:29:12.914Z,1012.63
2022-08-19T02:29:44.502Z,1012.62
2022-08-19T02:30:14.491Z,1012.61
2022-08-19T02:30:44.865Z,1012.59
2022-08-19T02:31:15.648Z,1012.57
2022-08-19T02:31:46.478Z,1012.56
2022-08-19T02:32:17.293Z,1012.55
2022-08-19T02:32:48.075Z,1012.55
2022-08-19T02:33:19.904Z,1012.54
2022-08-19T02:33:49.658Z,1012.53
2022-08-19T02:34:20.443Z,1012.53
2022-08-19T02:34:51.226Z,1012.53
2022-08-19T02:35:22.830Z,1012.53
2022-08-19T02:35:52.568Z,1012.53
2022-08-19T02:36:23.352Z,1012.53
2022-08-19T02:36:54.149Z,1012.53
2022-08-19T02:37:24.956Z,1012.53
2022-08-19T02:37:55.876Z,1012.55
2022-08-19T02:38:27.468Z,1012.56
2022-08-19T02:38:57.211Z,1012.58
2022-08-19T02:39:28.005Z,1012.59
2022-08-19T02:39:58.865Z,1012.60
2022-08-19T02:40:29.668Z,1012.61
2022-08-19T02:41:00.450Z,1012.62
2022-08-19T02:41:31.236Z,1012.61
2022-08-19T02:42:02.853Z,1012.62
2022-08-19T02:42:32.610Z,1012.61
2022-08-19T02:43:04.449Z,1012.60
2022-08-19T02:43:34.658Z,1012.61
2022-08-19T02:44:29.333Z,1012.61
2022-08-19T02:44:36.813Z,1012.62
2022-08-19T02:45:06.558Z,1012.62
2022-08-19T02:45:40.448Z,1012.63
2022-08-19T02:46:07.970Z,1012.64
2022-08-19T02:46:38.751Z,1012.65
2022-08-19T02:47:09.530Z,1012.65
2022-08-19T02:47:41.125Z,1012.66
2022-08-19T02:48:21.353Z,1012.67
2022-08-19T02:48:42.495Z,1012.68
2022-08-19T02:49:12.477Z,1012.68
2022-08-19T02:49:42.797Z,1012.69
2022-08-19T02:50:13.587Z,1012.69
2022-08-19T02:50:53.324Z,1012.71
2022-08-19T02:51:16.197Z,1012.71
2022-08-19T02:51:45.933Z,1012.72
2022-08-19T02:52:16.720Z,1012.72
2022-08-19T02:52:47.568Z,1012.72
2022-08-19T02:53:18.390Z,1012.72
2022-08-19T02:53:49.178Z,1012.71
2022-08-19T02:54:20.771Z,1012.71
2022-08-19T02:54:50.525Z,1012.71
2022-08-19T02:55:21.324Z,1012.70
2022-08-19T02:55:52.113Z,1012.70
2022-08-19T02:56:22.888Z,1012.70
2022-08-19T02:56:53.676Z,1012.70
2022-08-19T02:57:24.461Z,1012.69
2022-08-19T02:57:55.270Z,1012.69
2022-08-19T02:58:26.058Z,1012.69
2022-08-19T02:58:56.888Z,1012.70
2022-08-19T02:59:28.481Z,1012.71
2022-08-19T02:59:58.218Z,1012.71
2022-08-19T03:00:29.838Z,1012.72
2022-08-19T03:00:59.781Z,1012.73
2022-08-19T03:01:30.187Z,1012.73
2022-08-19T03:02:01.026Z,1012.73
2022-08-19T03:02:31.810Z,1012.73
2022-08-19T03:03:02.617Z,1012.73
2022-08-19T03:03:33.402Z,1012.72
2022-08-19T03:04:04.193Z,1012.71
2022-08-19T03:04:34.978Z,1012.71
2022-08-19T03:05:05.774Z,1012.70
2022-08-19T03:05:56.047Z,1012.70
2022-08-19T03:06:08.376Z,1012.70
2022-08-19T03:06:39.179Z,1012.69
2022-08-19T03:07:10.658Z,1012.68
2022-08-19T03:07:39.467Z,1012.67
2022-08-19T03:08:10.271Z,1012.66
2022-08-19T03:08:41.068Z,1012.65
2022-08-19T03:09:12.017Z,1012.64
2022-08-19T03:09:42.799Z,1012.63
2022-08-19T03:10:14.388Z,1012.61
2022-08-19T03:10:44.140Z,1012.60
2022-08-19T03:11:14.927Z,1012.60
2022-08-19T03:11:46.546Z,1012.58
2022-08-19T03:12:17.138Z,1012.57
2022-08-19T03:12:46.931Z,1012.56
2022-08-19T03:13:17.743Z,1012.55
2022-08-19T03:13:48.536Z,1012.55
2022-08-19T03:14:19.340Z,1012.54
2022-08-19T03:14:51.157Z,1012.53
2022-08-19T03:15:21.729Z,1012.51
2022-08-19T03:15:52.286Z,1012.51
2022-08-19T03:16:22.038Z,1012.49
2022-08-19T03:16:52.822Z,1012.49
2022-08-19T03:17:24.637Z,1012.48
2022-08-19T03:17:55.166Z,1012.47
2022-08-19T03:18:25.027Z,1012.45
2022-08-19T03:18:55.589Z,1012.42
2022-08-19T03:19:26.394Z,1012.40
2022-08-19T03:19:57.993Z,1012.38
2022-08-19T03:20:27.884Z,1012.37
2022-08-19T03:20:59.504Z,1012.36
2022-08-19T03:21:29.241Z,1012.35
2022-08-19T03:22:00.820Z,1012.33
2022-08-19T03:22:31.358Z,1012.32
2022-08-19T03:23:01.901Z,1012.31
2022-08-19T03:23:32.679Z,1012.32
2022-08-19T03:24:02.417Z,1012.32
2022-08-19T03:24:33.200Z,1012.33
2022-08-19T03:25:03.995Z,1012.34
2022-08-19T03:25:34.772Z,1012.36
2022-08-19T03:26:16.816Z,1012.38
2022-08-19T03:26:37.389Z,1012.40
2022-08-19T03:27:07.145Z,1012.42
2022-08-19T03:27:38.714Z,1012.44
2022-08-19T03:28:08.452Z,1012.46
2022-08-19T03:28:39.228Z,1012.47
2022-08-19T03:29:09.871Z,1012.48
2022-08-19T03:29:43.093Z,1012.49
2022-08-19T03:30:11.862Z,1012.50
2022-08-19T03:30:43.538Z,1012.51
2022-08-19T03:31:45.588Z,1012.53
2022-08-19T03:31:52.659Z,1012.55
2022-08-19T03:32:24.457Z,1012.57
2022-08-19T03:32:46.581Z,1012.59
2022-08-19T03:33:18.247Z,1012.60
2022-08-19T03:33:48.110Z,1012.61
2022-08-19T03:34:18.050Z,1012.63
2022-08-19T03:34:48.838Z,1012.64
2022-08-19T03:35:19.618Z,1012.63
2022-08-19T03:35:50.407Z,1012.65
2022-08-19T03:36:21.213Z,1012.64
2022-08-19T03:36:51.997Z,1012.64
2022-08-19T03:37:22.780Z,1012.65
2022-08-19T03:37:53.566Z,1012.65
2022-08-19T03:38:24.370Z,1012.66
2022-08-19T03:38:57.528Z,1012.66
2022-08-19T03:39:25.524Z,1012.65
2022-08-19T03:39:56.387Z,1012.64
2022-08-19T03:40:28.134Z,1012.64
2022-08-19T03:40:58.698Z,1012.64
2022-08-19T03:41:44.646Z,1012.64
2022-08-19T03:42:29.298Z,1012.64
2022-08-19T03:42:38.297Z,1012.63
2022-08-19T03:43:01.986Z,1012.64
2022-08-19T03:43:32.606Z,1012.64
2022-08-19T03:44:02.347Z,1012.63
2022-08-19T03:44:33.143Z,1012.64
2022-08-19T03:45:04.777Z,1012.64
2022-08-19T03:45:34.519Z,1012.63
2022-08-19T03:46:06.095Z,1012.63
2022-08-19T03:46:35.825Z,1012.62
2022-08-19T03:47:06.633Z,1012.62
2022-08-19T03:47:37.418Z,1012.62
2022-08-19T03:48:09.234Z,1012.62
2022-08-19T03:48:38.966Z,1012.63
2022-08-19T03:49:09.609Z,1012.63
2022-08-19T03:49:40.390Z,1012.65
2022-08-19T03:50:11.172Z,1012.66
2022-08-19T03:50:42.860Z,1012.66
2022-08-19T03:51:12.608Z,1012.66
2022-08-19T03:51:43.414Z,1012.67
2022-08-19T03:52:14.012Z,1012.67
2022-08-19T03:52:45.641Z,1012.67
2022-08-19T03:53:16.417Z,1012.68
2022-08-19T03:53:46.159Z,1012.67
2022-08-19T03:54:17.767Z,1012.67
2022-08-19T03:54:47.505Z,1012.66
2022-08-19T03:55:19.102Z,1012.64
2022-08-19T03:55:48.848Z,1012.63
2022-08-19T03:56:19.629Z,1012.61
2022-08-19T03:56:51.239Z,1012.60
2022-08-19T03:57:21.778Z,1012.59
2022-08-19T03:57:56.198Z,1012.58
2022-08-19T03:58:23.318Z,1012.57
2022-08-19T03:58:53.059Z,1012.58
2022-08-19T03:59:23.841Z,1012.57
2022-08-19T03:59:54.630Z,1012.59
2022-08-19T04:00:26.409Z,1012.57
2022-08-19T04:00:56.223Z,1012.57
2022-08-19T04:01:35.233Z,1012.56
2022-08-19T04:01:58.824Z,1012.56
2022-08-19T04:02:28.524Z,1012.55
2022-08-19T04:03:00.624Z,1012.54
2022-08-19T04:03:30.952Z,1012.54
2022-08-19T04:04:01.953Z,1012.54
2022-08-19T04:04:32.828Z,1012.53
2022-08-19T04:05:02.509Z,1012.53
2022-08-19T04:05:33.241Z,1012.52
2022-08-19T04:06:04.019Z,1012.52
2022-08-19T04:06:34.773Z,1012.51
2022-08-19T04:07:05.511Z,1012.51
2022-08-19T04:07:37.574Z,1012.50
2022-08-19T04:08:11.968Z,1012.49
2022-08-19T04:08:39.029Z,1012.48
2022-08-19T04:09:10.045Z,1012.47
2022-08-19T04:09:39.735Z,1012.47
2022-08-19T04:10:11.277Z,1012.47
2022-08-19T04:10:41.242Z,1012.47
2022-08-19T04:11:13.006Z,1012.47
2022-08-19T04:11:44.465Z,1012.46
2022-08-19T04:12:13.534Z,1012.46
2022-08-19T04:12:45.113Z,1012.45
2022-08-19T04:13:14.799Z,1012.45
2022-08-19T04:13:46.342Z,1012.45
2022-08-19T04:14:16.026Z,1012.45
2022-08-19T04:14:46.752Z,1012.45
2022-08-19T04:15:17.482Z,1012.46
2022-08-19T04:15:48.226Z,1012.46
2022-08-19T04:16:18.964Z,1012.46
2022-08-19T04:16:50.511Z,1012.46
2022-08-19T04:17:20.195Z,1012.46
2022-08-19T04:17:51.765Z,1012.45
2022-08-19T04:18:22.490Z,1012.44
2022-08-19T04:18:53.040Z,1012.42
2022-08-19T04:19:22.733Z,1012.41
2022-08-19T04:19:53.462Z,1012.39
2022-08-19T04:20:24.210Z,1012.39
2022-08-19T04:20:54.959Z,1012.37
2022-08-19T04:21:25.687Z,1012.36
2022-08-19T04:21:57.242Z,1012.35
2022-08-19T04:22:26.916Z,1012.34
2022-08-19T04:22:58.840Z,1012.33
2022-08-19T04:23:28.539Z,1012.32
2022-08-19T04:23:59.072Z,1012.32
2022-08-19T04:24:30.803Z,1012.32
2022-08-19T04:25:01.859Z,1012.31
2022-08-19T04:25:31.540Z,1012.31
2022-08-19T04:26:03.578Z,1012.31
2022-08-19T04:26:33.564Z,1012.32
2022-08-19T04:27:05.102Z,1012.31
2022-08-19T04:27:34.790Z,1012.32
2022-08-19T04:28:05.522Z,1012.32
2022-08-19T04:28:36.269Z,1012.31
2022-08-19T04:29:11.655Z,1012.32
2022-08-19T04:29:38.777Z,1012.35
2022-08-19T04:30:08.466Z,1012.36
2022-08-19T04:30:39.194Z,1012.37
2022-08-19T04:31:09.925Z,1012.39
2022-08-19T04:31:40.662Z,1012.40
2022-08-19T04:32:11.399Z,1012.42
2022-08-19T04:32:42.938Z,1012.43
2022-08-19T04:33:13.962Z,1012.43
2022-08-19T04:33:43.505Z,1012.42
2022-08-19T04:34:14.262Z,1012.43
2022-08-19T04:35:01.326Z,1012.43
2022-08-19T04:35:19.323Z,1012.44
2022-08-19T04:35:46.067Z,1012.45
2022-08-19T04:36:18.105Z,1012.44
2022-08-19T04:36:47.961Z,1012.45
2022-08-19T04:37:18.683Z,1012.46
2022-08-19T04:37:49.411Z,1012.45
2022-08-19T04:38:20.148Z,1012.45
2022-08-19T04:38:50.971Z,1012.46
2022-08-19T04:39:22.484Z,1012.46
2022-08-19T04:39:53.520Z,1012.46
2022-08-19T04:40:24.228Z,1012.46
2022-08-19T04:40:53.921Z,1012.47
2022-08-19T04:41:24.656Z,1012.48
2022-08-19T04:41:56.187Z,1012.49
2022-08-19T04:42:30.924Z,1012.50
2022-08-19T04:42:57.900Z,1012.52
2022-08-19T04:43:27.593Z,1012.53
2022-08-19T04:44:04.109Z,1012.55
2022-08-19T04:44:30.085Z,1012.57
2022-08-19T04:45:01.111Z,1012.58
2022-08-19T04:45:36.294Z,1012.60
2022-08-19T04:46:02.873Z,1012.62
2022-08-19T04:46:40.199Z,1012.63
2022-08-19T04:47:11.221Z,1012.65
2022-08-19T04:47:49.201Z,1012.66
2022-08-19T04:48:26.241Z,1012.68
2022-08-19T04:48:36.510Z,1012.69
2022-08-19T04:49:13.022Z,1012.70
2022-08-19T04:49:37.950Z,1012.72
2022-08-19T04:50:07.631Z,1012.73
2022-08-19T04:50:38.619Z,1012.74
2022-08-19T04:51:09.352Z,1012.76
2022-08-19T04:51:39.923Z,1012.78
2022-08-19T04:52:10.675Z,1012.80
2022-08-19T04:52:41.447Z,1012.82
2022-08-19T04:53:13.001Z,1012.83
2022-08-19T04:53:42.685Z,1012.84
2022-08-19T04:54:14.279Z,1012.86
2022-08-19T04:54:44.808Z,1012.87
2022-08-19T04:55:14.444Z,1012.88
2022-08-19T04:55:45.176Z,1012.88
2022-08-19T04:56:15.904Z,1012.89
2022-08-19T04:56:47.459Z,1012.89
2022-08-19T04:57:17.236Z,1012.90
2022-08-19T04:57:48.811Z,1012.90
2022-08-19T04:58:18.494Z,1012.90
2022-08-19T04:58:50.028Z,1012.90
2022-08-19T04:59:19.704Z,1012.91
2022-08-19T04:59:50.476Z,1012.91
2022-08-19T05:00:22.237Z,1012.92
2022-08-19T05:00:51.958Z,1012.93
2022-08-19T05:01:23.591Z,1012.94
2022-08-19T05:01:54.083Z,1012.95
2022-08-19T05:02:23.784Z,1012.96
2022-08-19T05:02:54.706Z,1012.97
2022-08-19T05:03:30.042Z,1012.97
2022-08-19T05:03:57.286Z,1012.97
2022-08-19T05:04:26.973Z,1012.98
2022-08-19T05:04:58.527Z,1012.99
2022-08-19T05:05:29.537Z,1013.00
2022-08-19T05:06:00.259Z,1013.01
2022-08-19T05:06:29.947Z,1013.03
2022-08-19T05:07:01.069Z,1013.04
2022-08-19T05:07:32.363Z,1013.06
2022-08-19T05:08:02.885Z,1013.08
2022-08-19T05:08:33.882Z,1013.09
2022-08-19T05:09:03.566Z,1013.11
2022-08-19T05:09:57.719Z,1013.12
2022-08-19T05:10:06.192Z,1013.13
2022-08-19T05:10:35.911Z,1013.14
2022-08-19T05:11:06.644Z,1013.14
2022-08-19T05:11:38.689Z,1013.16
2022-08-19T05:12:08.386Z,1013.16
2022-08-19T05:12:39.117Z,1013.17
2022-08-19T05:13:10.879Z,1013.17
2022-08-19T05:13:40.567Z,1013.17
2022-08-19T05:14:11.166Z,1013.16
2022-08-19T05:14:41.901Z,1013.15
2022-08-19T05:15:13.437Z,1013.13
2022-08-19T05:15:44.157Z,1013.11
2022-08-19T05:16:13.837Z,1013.09
2022-08-19T05:16:44.572Z,1013.08
2022-08-19T05:17:34.848Z,1013.07
2022-08-19T05:17:47.109Z,1013.06
2022-08-19T05:18:17.019Z,1013.06
2022-08-19T05:18:47.775Z,1013.06
2022-08-19T05:19:19.328Z,1013.06
2022-08-19T05:19:50.323Z,1013.04
2022-08-19T05:20:20.011Z,1013.04
2022-08-19T05:20:51.548Z,1013.03
2022-08-19T05:21:21.237Z,1013.03
2022-08-19T05:21:52.816Z,1013.03
2022-08-19T05:22:22.543Z,1013.03
2022-08-19T05:22:54.401Z,1013.03
2022-08-19T05:23:25.012Z,1013.04
2022-08-19T05:23:54.711Z,1013.05
2022-08-19T05:24:25.447Z,1013.06
2022-08-19T05:25:11.647Z,1013.06
2022-08-19T05:25:27.941Z,1013.06
2022-08-19T05:25:58.968Z,1013.06
2022-08-19T05:26:29.993Z,1013.06
2022-08-19T05:27:00.994Z,1013.06
2022-08-19T05:27:30.679Z,1013.07
2022-08-19T05:28:01.421Z,1013.07
2022-08-19T05:28:32.148Z,1013.07
2022-08-19T05:29:02.736Z,1013.07
2022-08-19T05:29:36.309Z,1013.07
2022-08-19T05:30:05.541Z,1013.06
2022-08-19T05:30:46.745Z,1013.05
2022-08-19T05:31:06.981Z,1013.04
2022-08-19T05:31:38.012Z,1013.02
2022-08-19T05:32:07.859Z,1013.01
2022-08-19T05:32:38.611Z,1013.01
2022-08-19T05:33:10.153Z,1013.00
2022-08-19T05:33:39.837Z,1013.01
2022-08-19T05:34:18.242Z,1013.03
2022-08-19T05:34:42.120Z,1013.04
2022-08-19T05:35:11.806Z,1013.05
2022-08-19T05:35:42.541Z,1013.06
2022-08-19T05:36:14.080Z,1013.07
2022-08-19T05:36:45.104Z,1013.07
2022-08-19T05:37:14.791Z,1013.08
2022-08-19T05:37:45.549Z,1013.09
2022-08-19T05:38:16.280Z,1013.10
2022-08-19T05:38:47.008Z,1013.11
2022-08-19T05:39:17.739Z,1013.12
2022-08-19T05:39:51.529Z,1013.13
2022-08-19T05:40:20.192Z,1013.13
2022-08-19T05:40:50.862Z,1013.13
2022-08-19T05:41:21.380Z,1013.12
2022-08-19T05:41:52.098Z,1013.11
2022-08-19T05:42:23.094Z,1013.11
2022-08-19T05:42:55.024Z,1013.10
2022-08-19T05:43:24.088Z,1013.10
2022-08-19T05:43:54.818Z,1013.10
2022-08-19T05:44:25.555Z,1013.10
2022-08-19T05:44:57.313Z,1013.10
2022-08-19T05:45:28.329Z,1013.09
2022-08-19T05:45:58.013Z,1013.09
2022-08-19T05:46:28.752Z,1013.08
2022-08-19T05:47:00.274Z,1013.07
2022-08-19T05:47:30.992Z,1013.06
2022-08-19T05:48:00.683Z,1013.05
2022-08-19T05:48:32.261Z,1013.05
2022-08-19T05:49:01.951Z,1013.05
2022-08-19T05:49:32.677Z,1013.05
2022-08-19T05:50:05.013Z,1013.05
2022-08-19T05:50:35.219Z,1013.05
2022-08-19T05:51:04.905Z,1013.05
2022-08-19T05:51:35.634Z,1013.04
2022-08-19T05:52:06.354Z,1013.02
2022-08-19T05:52:38.122Z,1013.01
2022-08-19T05:53:08.873Z,1012.99
2022-08-19T05:53:38.565Z,1012.98
2022-08-19T05:54:10.106Z,1012.98
2022-08-19T05:54:39.852Z,1012.97
2022-08-19T05:55:10.585Z,1012.97
2022-08-19T05:55:41.326Z,1012.97
2022-08-19T05:56:13.084Z,1012.98
2022-08-19T05:56:44.050Z,1012.98
2022-08-19T05:57:15.058Z,1012.99
2022-08-19T05:57:44.742Z,1012.99
2022-08-19T05:58:15.487Z,1012.99
2022-08-19T05:58:46.225Z,1013.00
2022-08-19T05:59:16.960Z,1013.00
2022-08-19T05:59:47.678Z,1013.01
2022-08-19T06:00:24.039Z,1013.02
2022-08-19T06:00:49.942Z,1013.03
2022-08-19T06:01:19.746Z,1013.03
2022-08-19T06:01:51.286Z,1013.03
2022-08-19T06:02:21.012Z,1013.03
2022-08-19T06:02:53.016Z,1013.03
2022-08-19T06:03:22.335Z,1013.02
2022-08-19T06:03:53.058Z,1013.01
2022-08-19T06:04:23.790Z,1013.01
2022-08-19T06:04:54.524Z,1013.01
2022-08-19T06:05:25.270Z,1013.01
2022-08-19T06:05:56.024Z,1013.01
2022-08-19T06:06:26.749Z,1013.01
2022-08-19T06:06:58.328Z,1013.00
2022-08-19T06:07:28.088Z,1013.00
2022-08-19T06:07:58.560Z,1013.00
2022-08-19T06:08:33.837Z,1013.00
2022-08-19T06:09:01.058Z,1013.00
2022-08-19T06:09:30.744Z,1012.99
2022-08-19T06:10:02.291Z,1012.99
2022-08-19T06:10:32.027Z,1012.98
2022-08-19T06:11:02.752Z,1012.97
2022-08-19T06:11:34.304Z,1012.97